Tiempo atmosférico en la estación meteorológica de Villanueva De Córdoba, Córdoba (740 m.)



Fecha
DESCASC
Temp. máxima en grados centígrados (hora)
DESCASC
Temp. mínima en grados centígrados (hora)
DESCASC
Temp. media en grados centígrados
DESCASC
Racha de viento máxima en m/sg (hora)
DESCASC
Velocidad máxima media en intervalos de 10 minutos(hora)
DESCASC
Precipitaciones diarias en mm
DESCASC
Precipitaciones de 00:00 a 06:00 en mm
DESCASC
Precipitaciones de 06:00 a 12:00 en mm
DESCASC
Precipitaciones de 12:00 a 18:00 en mm
DESCASC
Precipitaciones de 18:00 a 24:00 en mm
DESCASC
19-09-2019 29.5 (17:10) 15.6 (08:00) 22.6 8.89 (15:50) 3.89 (18:40) 0 0 0 0 0
18-09-2019 29.3 (17:50) 15.9 (07:20) 22.6 8.06 (16:50) 3.89 (19:10) 0 0 0 0 0
17-09-2019 28.4 (14:10) 17.2 (00:00) 22.8 9.72 (17:00) 5 (17:40) 0 0 0 0 0
16-09-2019 27.3 (14:40) 17 (00:00) 22.1 6.67 (16:10) 3.33 (16:10) 0 0 0 0 0
15-09-2019 25 (14:00) 16.1 (00:00) 20.6 8.33 (15:30) 4.72 (15:20) 12.4 0.4 4.6 7.4 0
14-09-2019 21.3 (18:40) 15 (00:00) 18.1 9.44 (23:59) 3.61 (13:10) 5.2 0 0 2.6 2.6
13-09-2019 23.2 (16:20) 13.9 (00:00) 18.6 12.5 (11:20) 6.39 (11:30) 2.6 0.2 2.4 0 0
12-09-2019 23.1 (13:00) 14.3 (00:00) 18.7 15.56 (08:40) 7.22 (11:20) 1 0 0 0 1
11-09-2019 24.2 (16:40) 11.2 (00:00) 17.7 14.44 (11:30) 6.94 (11:30) 0 0 0 0 0
10-09-2019 24.1 (17:50) 11.8 (08:10) 18 13.61 (17:10) 6.11 (17:10) 0 0 0 0 0
09-09-2019 30 (16:30) 14.7 (07:30) 22.3 12.5 (16:10) 7.22 (17:00) 0 0 0 0 0
08-09-2019 29.4 (15:10) 17.6 (00:00) 23.5 16.11 (15:30) 6.39 (15:30) 1 0 0 0.4 0.6
07-09-2019 32.1 (16:40) 17.8 (00:00) 24.9 11.67 (16:20) 5.56 (18:20) 0 0 0 0 0
06-09-2019 32 (15:00) 18.1 (00:00) 25.1 7.78 (14:00) 3.33 (14:50) 0 0 0 0 0
05-09-2019 33.8 (16:00) 18.9 (00:00) 26.3 10 (16:20) 4.72 (17:00) 0 0 0 0 0
04-09-2019 34.4 (16:40) 19.1 (00:00) 26.8 11.11 (18:30) 5 (17:30) 0 0 0 0 0
03-09-2019 34.8 (17:20) 19.3 (00:00) 27 10 (18:50) 5.28 (19:10) 0 0 0 0 0
02-09-2019 36.1 (16:30) 21 (00:00) 28.5 13.89 (19:30) 5.28 (19:40) 4.6 0 0 0 4.6
01-09-2019 35.5 (15:40) 19.8 (00:00) 27.6 8.89 (20:20) 4.72 (17:50) 0 0 0 0 0
31-08-2019 34.3 (15:10) 19.2 (00:00) 26.8 8.33 (17:50) 4.17 (17:40) 0 0 0 0 0
30-08-2019 35.6 (17:20) 19.5 (00:00) 27.5 10 (22:50) 4.72 (23:00) 0 0 0 0 0
29-08-2019 34.9 (16:50) 20.6 (00:00) 27.8 8.33 (20:30) 4.44 (20:30) 0 0 0 0 0
28-08-2019 32.9 (18:30) 19.1 (00:00) 26 8.61 (15:00) 3.89 (16:40) 0 0 0 0 0
27-08-2019 28.2 (18:20) 15.7 (00:00) 22 7.22 (18:20) 4.17 (19:40) 0 0 0 0 0
26-08-2019 29.5 (17:00) 17.1 (00:00) 23.3 11.94 (19:30) 6.39 (19:40) 3.6 0 0 0 3.6
25-08-2019 34.1 (16:30) 18.8 (00:00) 26.4 10.28 (21:40) 5 (21:40) 0 0 0 0 0
24-08-2019 35.5 (17:40) 18.1 (00:00) 26.8 8.06 (16:30) 3.89 (15:00) 0 0 0 0 0
23-08-2019 35.3 (16:10) 18.9 (00:00) 27.1 7.22 (15:30) 3.89 (09:40) 0 0 0 0 0
22-08-2019 34.3 (17:20) 18.1 (00:00) 26.2 8.33 (15:30) 3.89 (15:10) 0 0 0 0 0
21-08-2019 31.7 (17:50) 19.2 (00:00) 25.5 7.78 (10:20) 4.44 (17:50) 0 0 0 0 0

Gráficas

Temp. máximas Temp. mínimas Temp. medias Precipitaciones Rachas de viento máximas Velocidades máximas media en intervalos de 10 minutos

Datos horarios

Fecha y hora oficial Temperatura (ºC) Velocidad del viento (km/h) Dirección del viento Racha (km/h) Dirección de racha Precipitación (mm) Presión (hPa) Tendencia (hPa) Humedad (%)
2019-09-19 23:00:00 20.2 6 Sur 10 Sudoeste 0 931.7 1 42
2019-09-19 22:00:00 20.9 6 Sur 12 Sudoeste 0 931.5 1 38
2019-09-19 21:00:00 22.3 8 Sudoeste 16 Sur 0 931 0.5 30
2019-09-19 20:00:00 25 10 Sur 24 Sudoeste 0 930.7 -0.1 24
2019-09-19 19:00:00 27.2 10 Sudoeste 27 Sudoeste 0 930.5 -0.6 26
2019-09-19 18:00:00 28.3 11 Sur 24 Sur 0 930.5 -1.3 23
2019-09-19 17:00:00 29.2 8 Sur 24 Sudoeste 0 930.8 -1.4 19
2019-09-19 16:00:00 29.1 5 Sur 32 Sur 0 931.1 -1.4 22
2019-09-19 15:00:00 27.9 8 Sudeste 23 Sudeste 0 931.8 -1 26
2019-09-19 14:00:00 27.7 10 Sudoeste 25 Oeste 0 932.2 -0.5 28
2019-09-19 13:00:00 26.7 9 Sur 22 Sudoeste 0 932.5 0 32
2019-09-19 12:00:00 25.7 9 Sur 17 Sudeste 0 932.8 0.7 38
2019-09-19 11:00:00 23.5 6 Sudeste 13 Sudeste 0 932.7 1 42
2019-09-19 10:00:00 20.7 4 Sur 8 Sudeste 0 932.5 0.9 53
2019-09-19 09:00:00 17.2 4 Sudeste 8 Sudeste 0 932.1 0.5 63
2019-09-19 08:00:00 15.6 4 Sur 8 Sur 0 931.7 0 65
2019-09-19 07:00:00 16.5 5 Oeste 9 Oeste 0 931.6 -0.3 62
2019-09-19 06:00:00 17.2 6 Noroeste 9 Noroeste 0 931.6 -0.7 60
2019-09-19 05:00:00 16.6 3 Sudoeste 9 Sur 0 931.7 -0.5 61
2019-09-19 04:00:00 17.5 5 Sur 12 Sur 0 931.9 -0.6 59
2019-09-19 03:00:00 18.7 4 Sudoeste 8 Sudoeste 0 932.3 -0.1 55
2019-09-19 02:00:00 18.7 6 Sudoeste 8 Sudoeste 0 932.2 -0.1 54
2019-09-19 01:00:00 18.5 5 Sur 9 Sudoeste 0 932.5 0.4 55
2019-09-19 00:00:00 19.3 7 Sur 10 Sur 0 932.4 0.9 53
2019-09-18 23:00:00 20.3 7 Sur 12 Sudoeste 0 932.3 1.1 52
2019-09-18 22:00:00 21.3 7 Sur 15 Sur 0 932.1 1.2 52
2019-09-18 21:00:00 22.6 8 Sur 16 Sur 0 931.5 0.7 49
2019-09-18 20:00:00 24.5 9 Sur 25 Sur 0 931.2 0.3 44
2019-09-18 19:00:00 27.2 11 Sur 24 Sudoeste 0 930.9 -0.4 34
2019-09-18 18:00:00 28.4 8 Sur 23 Sudoeste 0 930.8 -1 31
2019-09-18 17:00:00 28.6 9 Sur 29 Sudoeste 0 930.9 -1.3 30
2019-09-18 16:00:00 28.6 8 Sur 27 Sur 0 931.3 -1.1 31
2019-09-18 15:00:00 27.6 8 Sur 28 Sudoeste 0 931.8 -0.8 40
2019-09-18 14:00:00 27.3 7 Sudoeste 19 Sudoeste 0 932.2 -0.3 36
2019-09-18 13:00:00 26 7 Sudoeste 19 Sudoeste 0 932.4 0.3 39
2019-09-18 12:00:00 23.6 6 Norte 15 Noroeste 0 932.6 0.9 53
2019-09-18 11:00:00 21.6 7 Noroeste 15 Noroeste 0 932.5 1.4 60
2019-09-18 10:00:00 20 8 Noroeste 13 Noroeste 0 932.1 1.3 66
2019-09-18 09:00:00 17.8 5 Noroeste 8 Noroeste 0 931.7 0.9 77
2019-09-18 08:00:00 16.2 4 Oeste 9 Sur 0 931.1 0.2 83
2019-09-18 07:00:00 16 6 Sur 11 Sudeste 0 930.8 -0.1 83
2019-09-18 06:00:00 16.1 4 Sudeste 12 Sudeste 0 930.8 -0.5 82
2019-09-18 05:00:00 17.1 8 Sur 16 Sur 0 930.9 -0.8 79
2019-09-18 04:00:00 17.2 7 Sur 14 Sudeste 0 930.9 -0.8 76
2019-09-18 03:00:00 18.4 8 Sur 15 Sudeste 0 931.3 -0.5 70
2019-09-18 02:00:00 18.4 8 Sur 12 Sur 0 931.7 0.6 71
2019-09-18 01:00:00 17.6 4 Sudeste 10 Sur 0 931.7 0.6 74
2019-09-18 00:00:00 18.9 6 Sur 12 Sur 0 931.8 0.8 68
2019-09-17 23:00:00 19.8 7 Sur 18 Sur 0 931.1 0.5 64
2019-09-17 22:00:00 20.7 6 Sur 10 Sur 0 931.1 0.6 60
2019-09-17 21:00:00 22.5 3 Sudoeste 21 Sur 0 931 0.8 51
2019-09-15 18:00:00 22.9 4 Nordeste 13 Nordeste 0 933.1 -0.8 62
2019-09-15 17:00:00 23.4 4 Este 9 Sur 0 933.3 -0.9 60
2019-09-15 16:00:00 21.1 2 Este 30 Oeste 7.4 933.7 -0.9 78
2019-09-15 15:00:00 22.8 12 Sudoeste 26 Nordeste 0 933.9 -0.9 62
2019-09-15 14:00:00 24.7 6 Sur 14 Sur 0 934.2 -0.5 54
2019-09-15 13:00:00 22.5 7 Sur 13 Sudeste 0 934.6 0.2 68
2019-09-15 12:00:00 20.3 5 Sudeste 11 Este 0 934.8 1 85
2019-09-15 11:00:00 18.8 6 Sudeste 13 Sudoeste 3 934.7 0.9 92
2019-09-15 10:00:00 17.6 5 Sudeste 10 Sudeste 1 934.4 0.8 92
2019-09-15 09:00:00 17.1 5 Este 8 Este 0.6 933.8 0.2 93
2019-09-15 08:00:00 16.8 3 Este 10 Este 0 933.8 0 93
2019-09-15 07:00:00 16.7 5 Este 9 Este 0 933.6 -0.4 92
2019-09-15 06:00:00 16.8 3 Norte 11 Noroeste 0.2 933.6 -0.4 91
2019-09-15 05:00:00 17.3 5 Sudeste 11 Este 0 933.8 -0.4 90
2019-09-15 04:00:00 16.9 0 Calma 8 Este 0 934 -0.5 89
2019-09-15 03:00:00 16.8 2 Este 8 Este 0 934 -0.4 91
2019-09-15 02:00:00 16.3 4 Norte 8 Noroeste 0 934.2 -0.2 91
2019-09-15 01:00:00 16.7 5 Noroeste 17 Este 0.2 934.5 0.4 89
2019-09-15 00:00:00 17.5 12 Sur 34 Sur 2.6 934.4 0.4 87
2019-09-14 23:00:00 17.9 5 Norte 10 Noroeste 0 934.4 0.6 82
2019-09-14 22:00:00 18.2 6 Nordeste 11 Nordeste 0 934.1 0.5 81
2019-09-14 21:00:00 19 6 Nordeste 10 Nordeste 0 934 0.3 77
2019-09-14 20:00:00 20.3 5 Este 17 Este 0 933.8 -0.5 70
2019-09-14 19:00:00 21.1 9 Este 22 Este 0 933.6 -1.1 67
2019-09-14 18:00:00 20.1 12 Este 22 Este 0 933.7 -1.8 72
2019-09-14 17:00:00 18.2 10 Nordeste 18 Este 0.6 934.3 -1 87
2019-09-14 16:00:00 16.7 11 Este 18 Este 1.8 934.7 -1.1 89
2019-09-14 15:00:00 17.4 4 Nordeste 21 Este 0.2 935.5 0 77
2019-09-14 14:00:00 18.4 11 Este 24 Nordeste 0 935.3 -0.2 68
2019-09-14 13:00:00 18.2 10 Este 17 Este 0 935.8 0.8 65
2019-09-14 12:00:00 17 10 Este 20 Este 0 935.5 0.1 73
2019-09-14 11:00:00 16.1 7 Este 15 Sudeste 0 935.5 1 81
2019-09-14 10:00:00 16.1 9 Este 24 Sudeste 0 935 0.8 80
2019-09-14 09:00:00 16.7 9 Sudeste 23 Este 0 935.4 1.2 72
2019-09-14 08:00:00 16 9 Sudeste 21 Sudeste 0 934.5 0.3 74
2019-09-14 07:00:00 15.4 7 Nordeste 10 Nordeste 0 934.2 -0.6 79
2019-09-14 06:00:00 15.7 3 Nordeste 14 Norte 0 934.2 -0.9 78
2019-09-14 05:00:00 15.1 8 Norte 16 Norte 0 934.2 -1.6 81
2019-09-14 04:00:00 16.1 8 Este 16 Nordeste 0 934.8 -1.3 75
2019-09-14 03:00:00 15.2 5 Norte 18 Este 0 935.1 -1.2 78
2019-09-14 02:00:00 15.2 5 Nordeste 10 Nordeste 0 935.8 -0.4 78
2019-09-14 01:00:00 15.4 5 Nordeste 10 Este 0 936.1 0.2 76
2019-09-14 00:00:00 16.7 6 Este 25 Este 0 936.3 0.5 70
2019-09-13 23:00:00 16.9 12 Este 22 Este 0 936.2 0.8 70
2019-09-13 22:00:00 15.6 7 Nordeste 10 Este 0 935.9 0.6 79
2019-09-13 21:00:00 17 6 Este 14 Este 0 935.8 1.5 68
2019-09-13 20:00:00 18.1 6 Nordeste 25 Este 0 935.4 1 68
2019-09-13 19:00:00 17.9 13 Nordeste 39 Nordeste 0 935.3 0.2 69
2019-09-13 18:00:00 22.3 12 Nordeste 27 Nordeste 0 934.3 -1.3 51
2019-09-13 17:00:00 22.4 11 Nordeste 33 Nordeste 0 934.4 -1.8 49
2019-09-13 16:00:00 22.1 13 Este 34 Este 0 935.1 -1 50
2019-09-13 15:00:00 20.8 15 Este 33 Nordeste 0 935.6 -0.7 56
2019-09-13 14:00:00 18.1 15 Nordeste 36 Nordeste 0 936.2 -0.3 68
2019-09-13 13:00:00 15.1 18 Nordeste 40 Nordeste 0 936.1 -0.1 82
2019-09-13 12:00:00 13.9 21 Nordeste 45 Nordeste 0.8 936.3 -1.1 88
2019-09-13 11:00:00 14.4 13 Nordeste 28 Nordeste 0 936.5 0.3 89
2019-09-13 10:00:00 13.9 12 Nordeste 25 Nordeste 1.6 936.2 0.1 89
2019-09-13 09:00:00 15 7 Sudeste 20 Nordeste 0 937.4 0.8 83
2019-09-13 08:00:00 14.6 13 Nordeste 23 Nordeste 0 936.2 -0.7 85
2019-09-13 07:00:00 14.6 13 Nordeste 28 Nordeste 0 936.1 -1.4 86
2019-09-13 06:00:00 14.8 16 Nordeste 31 Este 0 936.6 -1.4 85
2019-09-13 05:00:00 15.3 9 Este 30 Sudeste 0 936.9 -1.2 79
2019-09-13 04:00:00 15.5 6 Este 13 Este 0 937.5 -1.6 80
2019-09-13 03:00:00 15.4 6 Nordeste 18 Nordeste 0 938 -1 82
2019-09-13 02:00:00 15.3 12 Nordeste 28 Nordeste 0 938.1 -1.1 80
2019-09-13 01:00:00 15.8 16 Nordeste 29 Este 0.2 939.1 0.3 83
2019-09-13 00:00:00 16 8 Este 24 Este 0.4 939 1 83
2019-09-12 23:00:00 16.3 10 Este 43 Este 0.6 939.2 1.6 82
2019-09-12 22:00:00 18.7 19 Este 45 Este 0 938.8 1 62
2019-09-12 21:00:00 20 18 Nordeste 45 Nordeste 0 938 0.1 59
2019-09-12 20:00:00 20.3 18 Nordeste 41 Nordeste 0 937.6 -0.4 58
2019-09-12 19:00:00 21.4 14 Nordeste 48 Nordeste 0 937.8 0.1 49
2019-09-12 18:00:00 21.7 19 Este 43 Nordeste 0 937.9 0.1 46
2019-09-12 17:00:00 21.3 20 Este 42 Este 0 938 0 49
2019-09-12 16:00:00 21.8 18 Este 47 Nordeste 0 937.7 -0.4 48
2019-09-12 15:00:00 22.3 22 Este 45 Nordeste 0 937.8 -0.3 43
2019-09-12 14:00:00 22.6 23 Este 46 Nordeste 0 938 0.3 43
2019-09-12 13:00:00 21.7 20 Nordeste 48 Nordeste 0 938.1 1.2 49
2019-09-12 12:00:00 21.3 19 Nordeste 55 Este 0 938.1 2.2 50
2019-09-12 11:00:00 20.7 23 Nordeste 53 Nordeste 0 937.7 1.9 48
2019-09-12 10:00:00 18.9 19 Nordeste 54 Nordeste 0 936.9 0.9 53
2019-09-12 09:00:00 17.1 25 Nordeste 56 Nordeste 0 935.9 -0.6 57
2019-09-12 08:00:00 15 15 Norte 28 Norte 0 935.8 -0.8 63
2019-09-12 07:00:00 14.4 9 Norte 31 Norte 0 936 -1.2 65
2019-09-12 06:00:00 14.7 9 Nordeste 21 Nordeste 0 936.5 -0.8 65
2019-09-12 05:00:00 14.6 10 Nordeste 25 Nordeste 0 936.6 -0.5 61
2019-09-12 04:00:00 15.6 16 Este 40 Nordeste 0 937.2 0.2 46
2019-09-12 03:00:00 14.6 11 Este 27 Este 0 937.3 0.3 49
2019-09-12 02:00:00 14.7 9 Este 18 Nordeste 0 937.1 0.4 51
2019-09-12 01:00:00 16 11 Nordeste 27 Nordeste 0 937 0.9 47
2019-09-12 00:00:00 17.4 15 Este 39 Nordeste 0 937 1.8 42
2019-09-11 23:00:00 18.5 14 Nordeste 34 Este 0 936.7 2.2 45
2019-09-11 22:00:00 20 18 Nordeste 38 Nordeste 0 936.1 2.5 39
2019-09-11 21:00:00 20.5 14 Nordeste 37 Nordeste 0 935.2 1.9 36
2019-09-11 20:00:00 21.9 17 Nordeste 42 Nordeste 0 934.5 1 32
2019-09-11 19:00:00 22.8 19 Nordeste 46 Nordeste 0 933.6 -0.1 28
2019-09-11 18:00:00 23.3 19 Nordeste 51 Nordeste 0 933.3 -0.8 27
2019-09-11 17:00:00 24 19 Nordeste 46 Nordeste 0 933.5 -0.6 26
2019-09-11 16:00:00 23.4 19 Nordeste 51 Nordeste 0 933.7 -0.7 27
2019-09-11 15:00:00 22 20 Nordeste 48 Norte 0 934.1 -0.4 30
2019-09-11 14:00:00 22.7 22 Nordeste 47 Nordeste 0 934.1 -0.3 29
2019-09-11 13:00:00 21.5 18 Nordeste 46 Norte 0 934.4 0.2 32
2019-09-11 12:00:00 18.9 24 Nordeste 52 Norte 0 934.5 0.7 38
2019-09-11 11:00:00 17.3 20 Nordeste 50 Nordeste 0 934.4 1 42
2019-09-11 10:00:00 15.8 21 Nordeste 41 Nordeste 0 934.2 1.1 45
2019-09-11 09:00:00 13.1 12 Norte 27 Norte 0 933.8 0.7 54
2019-09-11 08:00:00 11.6 10 Norte 22 Norte 0 933.4 0.4 59
2019-09-11 07:00:00 11.3 6 Norte 18 Norte 0 933.1 0.2 60
2019-09-11 06:00:00 11.8 7 Noroeste 26 Nordeste 0 933.1 0.2 57
2019-09-11 05:00:00 13.2 10 Norte 39 Nordeste 0 933 0.1 52
2019-09-11 04:00:00 14 15 Nordeste 30 Nordeste 0 932.9 -0.1 49
2019-09-11 03:00:00 14.7 13 Norte 38 Norte 0 932.9 0.3 45
2019-09-11 02:00:00 15.6 14 Norte 32 Norte 0 932.9 1 42
2019-09-11 01:00:00 16.3 13 Nordeste 26 Nordeste 0 933 1.4 37
2019-09-11 00:00:00 16.3 9 Nordeste 22 Este 0 932.6 2 32
2019-09-10 23:00:00 17.8 11 Norte 32 Nordeste 0 931.9 1.7 27
2019-09-10 22:00:00 18.6 13 Norte 27 Nordeste 0 931.6 1.7 25
2019-09-10 21:00:00 19.7 9 Norte 33 Norte 0 930.6 1 20
2019-09-10 20:00:00 21.4 13 Norte 36 Nordeste 0 930.2 0.5 17
2019-09-10 19:00:00 22.6 17 Norte 43 Norte 0 929.9 -0.1 14
2019-09-10 18:00:00 23.4 17 Norte 49 Norte 0 929.6 -0.7 13
2019-09-10 17:00:00 23.6 15 Norte 37 Norte 0 929.7 -0.8 14
2019-09-10 16:00:00 22.2 12 Norte 33 Noroeste 0 930 -0.7 21
2019-09-10 15:00:00 20.7 15 Norte 37 Norte 0 930.3 -0.4 31
2019-09-10 14:00:00 20.3 10 Noroeste 27 Norte 0 930.5 0.1 34
2019-09-10 13:00:00 19.5 12 Norte 33 Norte 0 930.7 0.6 42
2019-09-10 12:00:00 18.5 16 Norte 38 Noroeste 0 930.7 1.2 48
2019-09-10 11:00:00 16.4 15 Norte 35 Noroeste 0 930.4 1.4 56
2019-09-10 10:00:00 13.6 13 Noroeste 32 Noroeste 0 930.1 1.1 68
2019-09-10 09:00:00 13 15 Noroeste 27 Noroeste 0 929.5 0.3 69
2019-09-10 08:00:00 11.9 11 Noroeste 27 Noroeste 0 929 -0.7 69
2019-09-10 07:00:00 12.6 13 Noroeste 27 Noroeste 0 929 -1.3 63
2019-09-10 06:00:00 13.6 14 Noroeste 26 Noroeste 0 929.2 -1.4 56
2019-09-10 05:00:00 14.6 16 Noroeste 27 Oeste 0 929.7 -1.5 49
2019-09-10 04:00:00 16.1 13 Noroeste 29 Oeste 0 930.3 -1.3 43
2019-09-10 03:00:00 17.3 17 Oeste 28 Oeste 0 930.6 -0.9 43
2019-09-10 02:00:00 19.2 14 Oeste 26 Oeste 0 931.2 -0.6 36
2019-09-10 01:00:00 21 14 Oeste 29 Oeste 0 931.6 0.1 41
2019-09-10 00:00:00 21.8 16 Oeste 29 Oeste 0 931.5 0.4 38
2019-09-09 23:00:00 23 12 Noroeste 33 Oeste 0 931.8 0.9 29
2019-09-09 22:00:00 23.8 15 Oeste 29 Oeste 0 931.5 0.6 28
2019-09-09 21:00:00 24.6 14 Oeste 36 Oeste 0 931.1 0.2 25
2019-09-09 20:00:00 26.9 23 Oeste 41 Oeste 0 930.9 -0.2 21
2019-09-09 19:00:00 27.5 19 Oeste 45 Oeste 0 930.9 -0.8 21
2019-09-09 18:00:00 28.1 18 Oeste 41 Oeste 0 930.9 -1.7 19
2019-09-09 17:00:00 29.4 26 Oeste 45 Oeste 0 931.1 -2.2 17
2019-09-09 16:00:00 29.5 22 Oeste 41 Oeste 0 931.7 -2.3 19
2019-09-09 15:00:00 28.3 19 Oeste 37 Oeste 0 932.6 -1.6 22
2019-09-09 14:00:00 27.6 13 Noroeste 34 Oeste 0 933.3 -0.7 23
2019-09-09 13:00:00 26.2 14 Oeste 26 Oeste 0 934 0.2 26
2019-09-09 12:00:00 24.3 7 Sudoeste 18 Oeste 0 934.2 0.9 37
2019-09-09 11:00:00 21.6 4 Sudoeste 12 Sur 0 934 0.8 56
2019-09-09 10:00:00 19.2 7 Sur 13 Sur 0 933.8 0.9 70
2019-09-09 09:00:00 16.4 7 Sur 12 Sudeste 0 933.3 0.6 80
2019-09-09 08:00:00 14.7 8 Sur 13 Sur 0 933.2 0.2 84
2019-09-09 07:00:00 14.9 8 Sur 14 Sur 0 932.9 -0.3 82
2019-09-09 06:00:00 15.1 6 Sur 14 Sur 0 932.7 -0.5 82
2019-09-09 05:00:00 15.4 8 Sur 15 Sur 0 933 -0.4 79
2019-09-09 04:00:00 16.2 6 Sur 14 Sur 0 933.2 -0.2 74
2019-09-09 03:00:00 16.2 5 Sur 8 Sur 0 933.2 -0.5 75
2019-09-09 02:00:00 16.3 4 Sudoeste 10 Sudoeste 0 933.4 -0.3 73
2019-09-09 01:00:00 17.3 8 Sur 16 Sudoeste 0 933.4 0 70
2019-09-09 00:00:00 17.6 8 Sur 18 Sur 0 933.7 1.3 72
2019-09-08 23:00:00 18.2 11 Sur 22 Sur 0 933.7 1.8 71
2019-09-08 22:00:00 18.5 12 Sur 21 Sur 0 933.4 1.4 69
2019-09-08 21:00:00 18.6 10 Sudeste 22 Sudeste 0 932.4 -0.1 76
2019-09-08 20:00:00 20.2 7 Nordeste 15 Nordeste 0 931.9 -1 73
2019-09-08 19:00:00 19.7 6 Sudeste 14 Sudeste 0.6 932 0.2 58
2019-09-08 18:00:00 19.7 6 Sur 31 Sudeste 0.2 932.5 0.9 65
2019-09-08 17:00:00 20.6 13 Sudeste 29 Sudeste 0.2 932.9 0.6 53
2019-09-08 16:00:00 22.2 9 Oeste 58 Oeste 0 931.8 -0.7 48
2019-09-08 15:00:00 28.8 12 Sur 24 Sudeste 0 931.6 -1.2 32
2019-09-08 14:00:00 26.5 8 Oeste 21 Oeste 0 932.3 -0.3 36
2019-09-08 13:00:00 25.9 6 Sur 16 Sur 0 932.5 0.4 41
2019-09-08 12:00:00 23.8 8 Sur 19 Sur 0 932.8 0.8 51
2019-09-08 11:00:00 22.7 4 Sudoeste 10 Sur 0 932.6 0.7 51
2019-09-08 10:00:00 20.2 2 Este 9 Este 0 932.1 0 73
2019-09-08 09:00:00 17.9 4 Nordeste 7 Nordeste 0 932 -0.3 86
2019-09-08 08:00:00 18 5 Sur 18 Sudeste 0 931.9 0.1 85
2019-09-08 07:00:00 18.5 9 Sur 19 Sur 0 932.1 0.1 84
2019-09-08 06:00:00 18.7 9 Sur 29 Sudoeste 0 932.3 0.1 80
2019-09-08 05:00:00 19.1 16 Sur 34 Sudoeste 0 931.8 0.2 75
2019-09-08 04:00:00 19.8 16 Sur 33 Sudoeste 0 932 0.3 70
2019-09-08 03:00:00 20.4 13 Sur 26 Sur 0 932.2 0.5 63
2019-09-08 02:00:00 21 14 Sur 29 Sur 0 931.6 0.1 53
2019-09-08 01:00:00 21.8 13 Sur 26 Sur 0 931.7 0.6 46
2019-09-08 00:00:00 21.9 10 Sur 18 Sur 0 931.7 1.2 41
2019-09-07 23:00:00 22.6 9 Sudoeste 17 Sudoeste 0 931.5 0.9 39
2019-09-07 22:00:00 23.6 6 Oeste 10 Oeste 0 931.1 0.3 36
2019-09-07 21:00:00 24.3 5 Noroeste 11 Noroeste 0 930.5 -0.4 35
2019-09-07 20:00:00 24.6 4 Nordeste 8 Este 0 930.6 -0.2 35
2019-09-07 19:00:00 25 4 Nordeste 38 Nordeste 0 930.8 -0.4 35
2019-09-07 18:00:00 28.4 12 Noroeste 22 Oeste 0 930.9 -0.9 27
2019-09-07 17:00:00 31 8 Sudoeste 42 Oeste 0 930.8 -1.5 22
2019-09-07 16:00:00 31.4 10 Sur 33 Sudoeste 0 931.2 -1.4 21
2019-09-07 15:00:00 28.8 6 Sudoeste 19 Sudoeste 0 931.8 -1.1 28
2019-09-07 14:00:00 29.7 7 Sur 21 Sudoeste 0 932.3 -0.8 27
2019-09-07 13:00:00 28.5 7 Sur 20 Sur 0 932.6 -0.2 30
2019-09-07 12:00:00 26.9 9 Sur 21 Este 0 932.9 0.3 33
2019-09-07 11:00:00 24.4 7 Sudeste 15 Sur 0 933.1 1.2 44
2019-09-07 10:00:00 22.7 6 Sur 13 Sudeste 0 932.8 1.1 50
2019-09-07 09:00:00 19.8 5 Sudeste 15 Sur 0 932.6 1 57
2019-09-07 08:00:00 17.9 8 Sur 15 Sur 0 931.9 0 60
2019-09-07 07:00:00 18.3 9 Sudeste 16 Sur 0 931.7 -0.5 53
2019-09-07 06:00:00 19 9 Sur 15 Sudeste 0 931.6 -0.6 49
2019-09-07 05:00:00 19.6 9 Sur 18 Sudeste 0 931.9 -0.5 46
2019-09-07 04:00:00 20 8 Sudeste 16 Sur 0 932.2 0.3 44
2019-09-07 03:00:00 20.5 8 Sur 17 Sur 0 932.2 0.4 43
2019-09-07 02:00:00 21.4 7 Sudeste 17 Sudeste 0 932.4 0.7 42
2019-09-07 01:00:00 22.1 8 Sudeste 17 Sur 0 931.9 0.4 34
2019-09-07 00:00:00 22.9 8 Sudeste 17 Sudeste 0 931.8 0.7 29
2019-09-06 23:00:00 23.3 9 Este 15 Este 0 931.7 0.8 29
2019-09-06 22:00:00 23.8 6 Nordeste 13 Nordeste 0 931.5 0.9 26
2019-09-06 21:00:00 26.8 6 Norte 13 Norte 0 931.1 0.3 19
2019-09-06 20:00:00 29.6 7 Norte 20 Norte 0 930.9 -0.2 14
2019-09-06 19:00:00 30.4 10 Norte 23 Norte 0 930.6 -1.1 13
2019-09-06 18:00:00 31.5 8 Norte 25 Noroeste 0 930.8 -1.7 14
2019-09-06 17:00:00 31.3 9 Norte 26 Noroeste 0 931.1 -1.7 14
2019-09-06 16:00:00 29.4 6 Nordeste 22 Norte 0 931.7 -1.4 20
2019-09-06 15:00:00 31.9 10 Sur 23 Sudoeste 0 932.5 -0.8 20
2019-09-06 14:00:00 29.8 12 Sur 28 Este 0 932.8 -0.3 25
2019-09-06 13:00:00 29.2 5 Sudoeste 19 Sur 0 933.1 0.1 25
2019-09-06 12:00:00 28.1 7 Este 24 Este 0 933.3 0.4 22
2019-09-06 11:00:00 26.5 10 Este 21 Este 0 933.1 0.5 23
2019-09-06 10:00:00 24.5 8 Este 18 Este 0 933 0.6 22
2019-09-06 09:00:00 20.6 4 Este 7 Este 0 932.9 0.4 35
2019-09-06 08:00:00 18.3 5 Sur 10 Sudeste 0 932.6 0.2 62
2019-09-06 07:00:00 18.5 6 Sudeste 10 Sudeste 0 932.4 -0.2 69
2019-09-06 06:00:00 18.8 5 Sudeste 13 Sudeste 0 932.5 -0.3 72
2019-09-06 05:00:00 20 7 Sudeste 13 Sudeste 0 932.4 -0.6 65
2019-09-06 04:00:00 20.7 7 Sudeste 15 Sudeste 0 932.6 -0.1 62
2019-09-06 03:00:00 21 7 Este 13 Este 0 932.8 0.2 41
2019-09-06 02:00:00 21.9 9 Este 18 Este 0 933 0.9 32
2019-09-06 01:00:00 22.8 6 Sudeste 17 Sudeste 0 932.7 0.8 31
2019-09-06 00:00:00 23.7 9 Este 20 Nordeste 0 932.6 1.3 30
2019-09-05 23:00:00 24.4 9 Este 16 Nordeste 0 932.1 1 32
2019-09-05 22:00:00 25.4 9 Nordeste 18 Nordeste 0 931.9 0.8 30
2019-09-05 21:00:00 27.5 8 Nordeste 28 Nordeste 0 931.3 0.6 26
2019-09-05 20:00:00 29.8 13 Nordeste 30 Norte 0 931.1 0.2 22
2019-09-05 19:00:00 31.7 13 Norte 33 Noroeste 0 931.1 -0.3 18
2019-09-05 18:00:00 32.2 15 Norte 35 Norte 0 930.7 -1 17
2019-09-05 17:00:00 32.8 17 Noroeste 36 Norte 0 930.9 -1.2 15
2019-09-05 16:00:00 33.4 13 Norte 30 Nordeste 0 931.4 -1.1 14
2019-09-05 15:00:00 33 13 Noroeste 30 Noroeste 0 931.7 -0.9 15
2019-09-05 14:00:00 32.5 9 Noroeste 23 Norte 0 932.1 -0.4 15
2019-09-05 13:00:00 32.1 3 Norte 21 Nordeste 0 932.5 0.4 16
2019-09-05 12:00:00 30.3 8 Este 20 Sudeste 0 932.6 0.6 18
2019-09-05 11:00:00 28.2 10 Nordeste 20 Nordeste 0 932.5 0.9 20
2019-09-05 10:00:00 25.5 10 Norte 17 Nordeste 0 932.1 0.7 21
2019-09-05 09:00:00 22.3 7 Noroeste 13 Noroeste 0 932 0.8 28
2019-09-05 08:00:00 19.6 5 Noroeste 14 Noroeste 0 931.6 0.4 33
2019-09-05 07:00:00 19.5 6 Norte 12 Norte 0 931.4 0.1 39
2019-09-05 06:00:00 19.9 4 Sudoeste 9 Sur 0 931.2 -0.5 42
2019-09-05 05:00:00 20.4 6 Sur 9 Sur 0 931.2 -0.7 44
2019-09-05 04:00:00 21.8 6 Oeste 8 Oeste 0 931.3 -0.9 34
2019-09-05 03:00:00 22.5 5 Sur 17 Oeste 0 931.7 -0.6 38
2019-09-05 02:00:00 23.5 8 Sudoeste 13 Sudoeste 0 931.9 -0.6 34
2019-09-05 01:00:00 24.3 7 Sudoeste 14 Sudoeste 0 932.2 -0.2 33
2019-09-05 00:00:00 24.7 8 Sudoeste 16 Sudoeste 0 932.3 0 33
2019-09-04 23:00:00 25.2 7 Sudoeste 13 Sur 0 932.5 0.4 30
2019-09-04 22:00:00 26.8 4 Oeste 12 Noroeste 0 932.4 0.1 16
2019-09-04 21:00:00 29.2 6 Noroeste 25 Noroeste 0 932.3 -0.1 14
2019-09-04 20:00:00 31.6 14 Noroeste 32 Noroeste 0 932.1 -0.5 13
2019-09-04 19:00:00 32.7 17 Noroeste 40 Noroeste 0 932.3 -0.9 12
2019-09-04 18:00:00 33.5 17 Noroeste 39 Oeste 0 932.4 -1.3 11
2019-09-04 17:00:00 34.2 15 Noroeste 37 Oeste 0 932.6 -1.6 12
2019-09-04 16:00:00 33.3 14 Noroeste 35 Noroeste 0 933.2 -1.7 13
2019-09-04 15:00:00 32.9 9 Norte 33 Norte 0 933.7 -1.5 17
2019-09-04 14:00:00 31.2 10 Noroeste 23 Noroeste 0 934.2 -1 21
2019-09-04 13:00:00 32 9 Sudoeste 22 Sudoeste 0 934.9 0 24
2019-09-04 12:00:00 30.4 9 Sudoeste 19 Sudoeste 0 935.2 0.6 27
2019-09-04 11:00:00 27.8 8 Sudoeste 14 Oeste 0 935.2 0.9 36
2019-09-04 10:00:00 24 8 Sur 17 Sur 0 934.9 0.9 51
2019-09-04 09:00:00 20.9 10 Sur 17 Sur 0 934.6 0.6 62
2019-09-04 08:00:00 19.1 8 Sur 16 Sur 0 934.3 0.2 64
2019-09-04 07:00:00 19.5 10 Sur 17 Sur 0 934 -0.6 60
2019-09-04 06:00:00 20.4 11 Sur 19 Sur 0 934 -0.8 54
2019-09-04 05:00:00 20.6 7 Sur 15 Sur 0 934.1 -0.7 51
2019-09-04 04:00:00 21.5 10 Sur 18 Sur 0 934.6 -0.4 45
2019-09-04 03:00:00 22.4 10 Sur 16 Sur 0 934.8 -0.2 38
2019-09-04 02:00:00 23 9 Sur 15 Sur 0 934.8 -0.2 36
2019-09-04 01:00:00 23.6 9 Sur 18 Sudoeste 0 935 0.4 37
2019-09-04 00:00:00 24.3 9 Sur 17 Sudoeste 0 935 0.4 36
2019-09-03 23:00:00 26 10 Sudoeste 18 Sudoeste 0 935 0.8 30
2019-09-03 22:00:00 25.8 7 Sudoeste 12 Sudoeste 0 934.6 0.4 32
2019-09-03 21:00:00 27.7 8 Sudoeste 26 Sudoeste 0 934.6 0.7 28
2019-09-03 20:00:00 29.8 17 Sudoeste 33 Sudoeste 0 934.2 0.2 26
2019-09-03 19:00:00 31 19 Sudoeste 36 Sur 0 934.2 -0.5 26
2019-09-03 18:00:00 33.4 10 Sudoeste 27 Noroeste 0 933.9 -1.2 15
2019-09-03 17:00:00 33.9 6 Sur 21 Oeste 0 934 -1.6 18
2019-09-03 16:00:00 31.3 7 Noroeste 21 Sudoeste 0 934.7 -1.5 21
2019-09-03 15:00:00 33.7 8 Sudoeste 27 Oeste 0 935.1 -1.3 19
2019-09-03 14:00:00 32.8 8 Sur 21 Sur 0 935.6 -0.6 22
2019-09-03 13:00:00 31.1 5 Sur 14 Sudoeste 0 936.2 0.5 23
2019-09-03 12:00:00 29.1 9 Sudoeste 19 Oeste 0 936.4 1 29
2019-09-03 11:00:00 27 9 Sudoeste 19 Sudoeste 0 936.2 1.3 36
2019-09-03 10:00:00 24 8 Sur 16 Sur 0 935.7 1.2 47
2019-09-03 09:00:00 21.2 8 Sur 14 Sur 0 935.4 1.3 57
2019-09-03 08:00:00 19.3 8 Sur 14 Sur 0 934.9 0.8 62
2019-09-03 07:00:00 19.6 7 Sur 14 Sur 0 934.5 0.5 59
2019-09-03 06:00:00 20 8 Sur 16 Sudoeste 0 934.1 -0.1 58
2019-09-03 05:00:00 20.3 9 Sur 15 Sur 0 934.1 0 55
2019-09-03 04:00:00 20.9 8 Sur 15 Sudeste 0 934 0.2 53
2019-09-03 03:00:00 21.5 9 Sur 19 Sur 0 934.2 0.6 50
2019-09-03 02:00:00 22.1 10 Sur 19 Sudeste 0 934.1 0.9 49
2019-09-03 01:00:00 23.2 11 Sur 22 Sudeste 0 933.8 1.1 46
2019-09-03 00:00:00 24.1 8 Sudeste 18 Sudeste 0 933.6 1.6 41
2019-09-02 23:00:00 24.5 7 Sur 14 Sur 0 933.2 1.6 43
2019-09-02 22:00:00 24.6 6 Sur 16 Sur 0 932.7 1.6 46
2019-09-02 21:00:00 25.3 2 Norte 24 Noroeste 0 932 1.1 44
2019-09-02 20:00:00 25.1 14 Sur 50 Noroeste 4.6 931.6 0.6 39
2019-09-02 19:00:00 32.4 6 Este 30 Sudoeste 0 931.1 -0.2 19
2019-09-02 18:00:00 33.9 12 Sudoeste 31 Sudoeste 0 930.9 -1 17
2019-09-02 17:00:00 35.3 16 Oeste 32 Oeste 0 931 -1.2 15
2019-09-02 16:00:00 35 13 Sudoeste 31 Sudoeste 0 931.3 -1.1 15
2019-09-02 15:00:00 34.5 10 Sudoeste 26 Sudoeste 0 931.9 -0.5 18
2019-09-02 14:00:00 34.8 13 Sudoeste 27 Sudoeste 0 932.2 -0.1 20
2019-09-02 13:00:00 31.6 8 Sudoeste 23 Sur 0 932.4 0.4 24
2019-09-02 12:00:00 30.4 6 Noroeste 19 Sudoeste 0 932.4 0.8 26
2019-09-02 11:00:00 29.5 3 Noroeste 11 Oeste 0 932.3 1.4 27
2019-09-02 10:00:00 26.8 0 Calma 8 Sur 0 932 1.6 33
2019-09-02 09:00:00 23 5 Sur 9 Sur 0 931.6 1.3 47
2019-09-02 08:00:00 21.1 6 Sur 9 Sur 0 930.9 0.5 50
2019-09-02 07:00:00 21.5 6 Sur 10 Sudoeste 0 930.4 0 49
2019-09-02 06:00:00 22.2 6 Sudoeste 9 Oeste 0 930.3 -0.3 47
2019-09-02 05:00:00 22.7 5 Sudoeste 10 Sudoeste 0 930.4 -0.2 45
2019-09-02 04:00:00 24.1 6 Oeste 16 Oeste 0 930.4 -0.1 42
2019-09-02 03:00:00 25.1 8 Oeste 17 Oeste 0 930.6 0.1 39
2019-09-02 02:00:00 25.2 12 Oeste 18 Oeste 0 930.6 0.2 39
2019-09-02 01:00:00 25.5 10 Sudoeste 24 Oeste 0 930.5 0.7 34
2019-09-02 00:00:00 26.7 12 Sudoeste 19 Oeste 0 930.5 1.2 30
2019-09-01 23:00:00 26.8 10 Sudoeste 16 Sudoeste 0 930.4 1.5 28
2019-09-01 22:00:00 27.8 8 Sudoeste 17 Sudoeste 0 929.8 0.9 25
2019-09-01 21:00:00 30.2 13 Sudoeste 32 Sudoeste 0 929.3 0.4 22
2019-09-01 20:00:00 32.1 14 Sudoeste 30 Sudoeste 0 928.9 -0.2 19
2019-09-01 19:00:00 32.2 10 Sudoeste 22 Oeste 0 928.9 -0.7 19
2019-09-01 18:00:00 32.9 10 Oeste 30 Sur 0 928.9 -1.4 18
2019-09-01 17:00:00 35.5 14 Sur 29 Sudoeste 0 929.1 -1.8 16
2019-09-01 16:00:00 35.4 13 Sudoeste 30 Sudoeste 0 929.6 -1.9 15
2019-09-01 15:00:00 34.4 12 Sudoeste 31 Sudoeste 0 930.3 -1.5 17
2019-09-01 14:00:00 33.8 13 Sudoeste 27 Sudoeste 0 930.9 -1 18
2019-09-01 13:00:00 33 10 Sudoeste 19 Sudoeste 0 931.5 -0.1 21
2019-09-01 12:00:00 31 6 Sur 14 Sudoeste 0 931.8 0.5 25
2019-09-01 11:00:00 28.2 3 Noroeste 11 Sudoeste 0 931.9 1 30
2019-09-01 10:00:00 25.3 4 Sudoeste 9 Sudoeste 0 931.6 1 41
2019-09-01 09:00:00 21.5 4 Sur 13 Sudeste 0 931.3 0.8 56
2019-09-01 08:00:00 19.8 8 Sur 14 Sur 0 930.9 0.3 63
2019-09-01 07:00:00 19.8 7 Sur 14 Sur 0 930.6 -0.2 62
2019-09-01 06:00:00 20.4 8 Sur 15 Sur 0 930.5 -0.5 57
2019-09-01 05:00:00 22 9 Sur 16 Sur 0 930.6 -0.6 44
2019-09-01 04:00:00 22.9 7 Sur 12 Sudoeste 0 930.8 -0.5 39
2019-09-01 03:00:00 23.1 9 Sudoeste 12 Sudoeste 0 931 -0.5 37
2019-09-01 02:00:00 25.3 9 Oeste 14 Oeste 0 931.2 -0.3 33
2019-09-01 01:00:00 25.7 9 Oeste 13 Oeste 0 931.3 0 31
2019-09-01 00:00:00 25.9 7 Sudoeste 13 Sudoeste 0 931.5 0.6 30
2019-08-31 23:00:00 26.9 9 Sudoeste 12 Sudoeste 0 931.5 0.9 28
2019-08-31 22:00:00 27 6 Sur 10 Sur 0 931.3 0.8 28
2019-08-31 21:00:00 29 7 Sudoeste 16 Sudoeste 0 930.9 0.6 24
2019-08-31 20:00:00 31.5 6 Sur 24 Sudeste 0 930.6 -0.2 21
2019-08-31 19:00:00 31 9 Sudeste 27 Oeste 0 930.5 -0.9 24
2019-08-31 18:00:00 33 15 Sudoeste 30 Sudoeste 0 930.3 -1.9 21
2019-08-31 17:00:00 32.1 7 Noroeste 22 Oeste 0 930.8 -2.1 20
2019-08-31 16:00:00 33 6 Sur 22 Sudoeste 0 931.4 -2 20
2019-08-31 15:00:00 33.7 8 Sudoeste 22 Sur 0 932.2 -1.5 20
2019-08-31 14:00:00 32.4 9 Sudoeste 22 Sudoeste 0 932.9 -0.8 22
2019-08-31 13:00:00 31.5 7 Sudoeste 19 Sudoeste 0 933.4 0.1 24
2019-08-31 12:00:00 29.2 7 Sudoeste 18 Sudoeste 0 933.7 0.6 28
2019-08-31 11:00:00 27 6 Sudoeste 17 Sudoeste 0 933.7 0.9 34
2019-08-31 10:00:00 25.4 7 Sur 16 Sur 0 933.3 1 37
2019-08-31 09:00:00 22 5 Este 12 Sudeste 0 933.1 0.9 48
2019-08-31 08:00:00 20.1 6 Sudeste 13 Sudeste 0 932.8 0.2 53
2019-08-31 07:00:00 19.6 6 Sudeste 13 Este 0 932.3 -0.8 54
2019-08-31 06:00:00 20.5 8 Sur 15 Sudeste 0 932.2 -1.3 50
2019-08-31 05:00:00 21.2 8 Sudeste 16 Este 0 932.6 -1.5 49
2019-08-31 04:00:00 20.9 7 Sudeste 19 Sudeste 0 933.1 -1.2 51
2019-08-31 03:00:00 21.8 10 Sudeste 22 Sudeste 0 933.5 -1.2 46
2019-08-31 02:00:00 22.2 10 Sudeste 22 Sur 0 934.1 -0.3 45
2019-08-31 01:00:00 22.8 10 Sudeste 23 Este 0 934.3 0.6 44
2019-08-31 00:00:00 24 13 Sudeste 31 Este 0 934.7 1.6 42
2019-08-30 23:00:00 26 17 Este 36 Este 0 934.4 1.9 33
2019-08-30 22:00:00 26.6 11 Nordeste 28 Nordeste 0 933.7 1.1 28
2019-08-30 21:00:00 28.7 9 Norte 25 Nordeste 0 933.1 0.4 23
2019-08-30 20:00:00 32.5 6 Sudoeste 20 Sudoeste 0 932.5 -0.8 17
2019-08-30 19:00:00 33.8 5 Sur 28 Oeste 0 932.6 -1.3 15
2019-08-30 18:00:00 35.1 11 Sudoeste 27 Sudoeste 0 932.7 -1.9 14
2019-08-30 17:00:00 35 10 Sur 30 Sur 0 933.3 -2 15
2019-08-30 16:00:00 35.1 9 Sudoeste 27 Sudoeste 0 933.9 -1.9 16
2019-08-30 15:00:00 34.6 9 Sudoeste 21 Sudeste 0 934.6 -1.4 17
2019-08-30 14:00:00 32.8 6 Sur 26 Sudeste 0 935.3 -0.8 20
2019-08-30 13:00:00 32.5 5 Sur 19 Sur 0 935.8 -0.2 21
2019-08-30 12:00:00 30.3 6 Sudoeste 15 Sudoeste 0 936 0.1 24
2019-08-30 11:00:00 28.5 4 Sur 14 Sur 0 936.1 0.5 28
2019-08-30 10:00:00 25.1 5 Sur 13 Sur 0 936 0.9 36
2019-08-30 09:00:00 22.3 6 Sur 13 Sur 0 935.9 0.8 43
2019-08-30 08:00:00 19.6 6 Sur 11 Sudeste 0 935.6 0.6 51
2019-08-30 07:00:00 19.6 7 Sur 11 Sur 0 935.1 -0.1 53
2019-08-30 06:00:00 19.7 8 Sur 12 Sur 0 935.1 -0.3 52
2019-08-30 05:00:00 20.2 7 Sur 14 Sur 0 935 -0.6 51
2019-08-30 04:00:00 20.7 7 Sur 17 Sur 0 935.2 -0.2 47
2019-08-30 03:00:00 21.5 9 Sur 18 Sur 0 935.4 0.1 43
2019-08-30 02:00:00 22.1 9 Sur 15 Sur 0 935.6 0.6 40
2019-08-30 01:00:00 23.2 9 Sur 17 Sur 0 935.4 0.9 37
2019-08-30 00:00:00 24.6 10 Sur 22 Sur 0 935.3 1.3 33
2019-08-29 23:00:00 25.6 12 Sudoeste 21 Sudoeste 0 935 1.4 31
2019-08-29 22:00:00 27 11 Sudoeste 21 Sudoeste 0 934.5 0.9 27
2019-08-29 21:00:00 28.9 13 Sudoeste 30 Sudoeste 0 934 0.3 24
2019-08-29 20:00:00 31.7 13 Sudoeste 26 Sudoeste 0 933.6 -0.4 19
2019-08-29 19:00:00 33.1 10 Sur 25 Sudoeste 0 933.6 -0.8 18
2019-08-29 18:00:00 33.5 8 Sudoeste 27 Sudoeste 0 933.7 -1.1 18
2019-08-29 17:00:00 33.4 7 Sur 26 Sur 0 934 -1 18
2019-08-29 16:00:00 33.7 9 Sudeste 29 Sur 0 934.4 -0.9 19
2019-08-29 15:00:00 33.4 8 Sur 24 Sur 0 934.8 -0.6 19
2019-08-29 14:00:00 32.8 6 Sudoeste 23 Sudoeste 0 935 -0.2 20
2019-08-29 13:00:00 31.4 8 Sur 18 Sudoeste 0 935.3 0.4 22
2019-08-29 12:00:00 28.6 7 Sudoeste 17 Sudoeste 0 935.4 1.1 25
2019-08-29 11:00:00 25.5 9 Sudoeste 18 Sur 0 935.2 1.3 30
2019-08-29 10:00:00 22.3 7 Sudoeste 12 Sudoeste 0 934.9 1.3 37
2019-08-29 09:00:00 21.7 9 Sur 17 Sur 0 934.3 0.9 38
2019-08-29 08:00:00 21.4 9 Sur 19 Sur 0 933.9 0.4 41
2019-08-29 07:00:00 20.8 10 Sur 17 Sur 0 933.6 0.4 48
2019-08-29 06:00:00 20.9 9 Sur 16 Sudoeste 0 933.4 0.1 50
2019-08-29 05:00:00 21.1 9 Sur 21 Sur 0 933.5 0.2 47
2019-08-29 04:00:00 21.6 10 Sur 17 Sur 0 933.2 -0.1 44
2019-08-29 03:00:00 22.4 7 Sur 13 Sur 0 933.3 0 42
2019-08-29 02:00:00 23.5 5 Sudoeste 8 Sudoeste 0 933.3 0.3 39
2019-08-29 01:00:00 23.8 6 Sudoeste 9 Oeste 0 933.3 0.7 38
2019-08-29 00:00:00 24.7 8 Oeste 12 Oeste 0 933.3 1.5 35
2019-08-28 23:00:00 25.2 5 Oeste 15 Sur 0 933 1.4 35
2019-08-28 22:00:00 26.4 8 Sudoeste 15 Sudeste 0 932.6 0.9 29
2019-08-28 21:00:00 28.5 5 Noroeste 14 Oeste 0 931.8 0 24
2019-08-28 20:00:00 31.2 9 Oeste 16 Oeste 0 931.6 -0.4 19
2019-08-28 19:00:00 32.1 8 Oeste 18 Oeste 0 931.7 -0.7 18
2019-08-28 18:00:00 32.1 6 Sudoeste 28 Norte 0 931.8 -0.9 19
2019-08-28 17:00:00 32.8 6 Sudoeste 25 Noroeste 0 932 -1.3 19
2019-08-28 16:00:00 31.7 9 Norte 19 Sudoeste 0 932.4 -1.1 20
2019-08-28 15:00:00 29.8 10 Noroeste 31 Noroeste 0 932.7 -1.1 23
2019-08-28 14:00:00 29.9 7 Noroeste 20 Sur 0 933.3 -0.4 23
2019-08-28 13:00:00 29.3 9 Oeste 20 Sudoeste 0 933.5 0.1 25
2019-08-28 12:00:00 27.9 6 Noroeste 13 Noroeste 0 933.8 0.7 29
2019-08-28 11:00:00 27.2 4 Este 12 Norte 0 933.7 0.7 32
2019-08-28 10:00:00 24 7 Noroeste 12 Norte 0 933.4 0.5 42
2019-08-28 09:00:00 21.4 5 Noroeste 11 Noroeste 0 933.1 0.5 49
2019-08-28 08:00:00 19.4 6 Norte 12 Noroeste 0 933 0.5 55
2019-08-28 07:00:00 19.5 8 Noroeste 14 Noroeste 0 932.9 0.3 55
2019-08-28 06:00:00 19.1 5 Noroeste 8 Noroeste 0 932.6 -0.4 56
2019-08-28 05:00:00 19.3 5 Noroeste 8 Noroeste 0 932.5 -0.7 55
2019-08-28 04:00:00 19.6 5 Noroeste 8 Noroeste 0 932.6 -0.6 53
2019-08-28 03:00:00 19.7 5 Noroeste 7 Noroeste 0 933 0 52
2019-08-28 02:00:00 19.8 4 Noroeste 8 Noroeste 0 933.2 0.5 50
2019-08-28 01:00:00 21.1 5 Norte 9 Norte 0 933.2 0.9 45
2019-08-28 00:00:00 21.4 5 Norte 10 Norte 0 933 1.4 43
2019-08-27 23:00:00 21.7 6 Norte 11 Norte 0 932.7 1.6 42
2019-08-27 22:00:00 22.9 6 Norte 10 Norte 0 932.3 1.3 41
2019-08-27 21:00:00 25 5 Noroeste 20 Noroeste 0 931.6 0.6 36
2019-08-27 20:00:00 26.7 12 Noroeste 25 Oeste 0 931.1 -0.2 31
2019-08-27 19:00:00 27.1 9 Norte 26 Noroeste 0 931 -0.6 30
2019-08-27 18:00:00 27.9 7 Norte 18 Noroeste 0 931 -1.1 30
2019-08-27 17:00:00 26.2 5 Noroeste 19 Oeste 0 931.3 -0.9 34
2019-08-27 16:00:00 27.9 9 Sudoeste 23 Sudoeste 0 931.6 -1 33
2019-08-27 15:00:00 25.6 6 Sudoeste 21 Sudoeste 0 932.1 -0.5 43
2019-08-27 14:00:00 25.6 11 Sudoeste 24 Sudoeste 0 932.2 -0.6 43
2019-08-27 13:00:00 25 6 Oeste 19 Noroeste 0 932.6 0.3 45
2019-08-27 12:00:00 23.6 8 Sudoeste 18 Sudoeste 0 932.6 0.8 56
2019-08-27 11:00:00 21.4 9 Oeste 19 Oeste 0 932.8 1.3 64
2019-08-27 10:00:00 20 5 Oeste 9 Sudoeste 0 932.3 1.4 68
2019-08-27 09:00:00 17.4 3 Sur 9 Sudeste 0 931.8 1.1 81
2019-08-27 08:00:00 16 5 Sur 10 Sur 0 931.5 0.8 77
2019-08-27 07:00:00 16.7 5 Noroeste 10 Noroeste 0 930.9 -0.2 71
2019-08-27 06:00:00 16.4 6 Noroeste 10 Noroeste 0 930.7 -0.4 79
2019-08-27 05:00:00 16.4 4 Sudoeste 9 Sur 0 930.7 -0.4 80
2019-08-27 04:00:00 17.2 6 Sur 13 Sudeste 0 931.1 -0.1 78
2019-08-27 03:00:00 17.3 6 Sudeste 12 Sudeste 0 931.1 -0.2 78
2019-08-27 02:00:00 17.4 6 Sur 10 Sudoeste 0 931.1 -0.2 78
2019-08-27 01:00:00 17.8 6 Sur 17 Oeste 0 931.2 1 77
2019-08-27 00:00:00 17.5 10 Noroeste 29 Oeste 1.2 931.3 0.9 69
2019-08-26 23:00:00 18.1 6 Sudoeste 17 Oeste 0 931.3 1.5 75
2019-08-26 22:00:00 17.6 4 Noroeste 11 Este 0 930.2 2 85
2019-08-26 21:00:00 17.2 9 Nordeste 30 Noroeste 1.6 930.4 2.1 84
2019-08-26 20:00:00 19.2 17 Noroeste 43 Noroeste 0.8 929.8 0.9 68
2019-08-26 19:00:00 29.2 14 Sudoeste 31 Sudoeste 0 928.2 -1.2 25
2019-08-26 18:00:00 28.5 14 Sur 31 Sur 0 928.3 -1.6 30
2019-08-26 17:00:00 29.5 14 Sur 33 Sudoeste 0 928.9 -1.4 30
2019-08-26 16:00:00 28.4 14 Sur 30 Sudoeste 0 929.4 -1.3 32
2019-08-26 15:00:00 27.6 12 Sur 29 Sur 0 929.9 -1.2 35
2019-08-26 14:00:00 26.9 10 Sur 27 Sudoeste 0 930.3 -1 38
2019-08-26 13:00:00 25.7 10 Sudeste 21 Sudeste 0 930.7 0.1 44
2019-08-26 12:00:00 25 6 Sudoeste 20 Sudoeste 0 931.1 1.3 49
2019-08-26 11:00:00 23.5 9 Sudoeste 19 Sudoeste 0 931.3 1.9 56
2019-08-26 10:00:00 21.4 13 Sudoeste 30 Sudoeste 0 930.6 1.6 64
2019-08-26 09:00:00 19.8 13 Sudoeste 26 Sudoeste 0 929.8 0.8 67
2019-08-26 08:00:00 17.8 6 Sur 14 Sur 0 929.4 0.2 75
2019-08-26 07:00:00 18.2 7 Sur 16 Sur 0 929 -0.7 74
2019-08-26 06:00:00 18.7 8 Sudeste 22 Sur 0 929 -0.8 69
2019-08-26 05:00:00 19.6 10 Sudoeste 24 Sudoeste 0 929.2 -0.7 64
2019-08-26 04:00:00 20 12 Sudoeste 23 Sudoeste 0 929.7 0 61
2019-08-26 03:00:00 20.5 13 Sudoeste 30 Sudoeste 0 929.8 0.4 59
2019-08-26 02:00:00 21.2 8 Sur 35 Sudoeste 0 929.9 0.4 58
2019-08-26 01:00:00 22.2 17 Sur 37 Sudoeste 0 929.7 0.5 55
2019-08-26 00:00:00 23.4 16 Sur 33 Sur 0 929.4 0.7 47
2019-08-25 23:00:00 25.1 13 Sur 24 Sur 0 929.5 0.9 39
2019-08-25 22:00:00 26.7 12 Sudoeste 37 Sudoeste 0 929.2 0.4 30
2019-08-25 21:00:00 28.7 8 Sur 23 Sudoeste 0 928.7 -0.6 30
2019-08-25 20:00:00 31.3 10 Sur 29 Sudoeste 0 928.6 -0.9 23
2019-08-25 19:00:00 32.6 13 Sur 30 Sur 0 928.8 -1.4 18
2019-08-25 18:00:00 33.3 14 Sur 30 Sur 0 929.3 -1.4 16
2019-08-25 17:00:00 33.3 9 Sudeste 27 Sur 0 929.5 -1.7 15
2019-08-25 16:00:00 33 13 Sur 30 Sur 0 930.2 -1.8 16
2019-08-25 15:00:00 31.9 12 Sur 27 Sur 0 930.7 -1.9 20
2019-08-25 14:00:00 32.3 9 Sudeste 21 Sur 0 931.2 -1.5 22
2019-08-25 13:00:00 31.3 5 Sur 21 Sudoeste 0 932 -0.6 24
2019-08-25 12:00:00 28.8 9 Sur 23 Sudoeste 0 932.6 0.2 33
2019-08-25 11:00:00 26.2 11 Sur 26 Sur 0 932.7 0.7 40
2019-08-25 10:00:00 23.8 12 Sur 23 Sur 0 932.6 0.9 46
2019-08-25 09:00:00 21.4 10 Sudeste 22 Sudeste 0 932.4 0.6 51
2019-08-25 08:00:00 19 8 Sur 18 Sur 0 932 -0.1 57
2019-08-25 07:00:00 19.2 9 Sur 22 Sur 0 931.7 -0.8 59
2019-08-25 06:00:00 20 11 Sur 23 Sur 0 931.8 -1 55
2019-08-25 05:00:00 20.6 14 Sudoeste 24 Sudoeste 0 932.1 -0.7 54
2019-08-25 04:00:00 20.8 14 Sur 28 Sur 0 932.5 0.2 53
2019-08-25 03:00:00 21.4 13 Sur 27 Sudeste 0 932.8 0.8 47
2019-08-25 02:00:00 22.5 14 Sur 31 Sur 0 932.8 0.7 36
2019-08-25 01:00:00 24.2 9 Sur 18 Sur 0 932.3 0.6 30
2019-08-25 00:00:00 25.5 8 Este 18 Sudoeste 0 932 0.7 28
2019-08-24 23:00:00 27.1 12 Sudoeste 19 Sudoeste 0 932.1 1.1 25
2019-08-24 22:00:00 27.9 10 Sudoeste 16 Sur 0 931.7 0.4 23
2019-08-24 21:00:00 30.4 12 Sudoeste 27 Sudoeste 0 931.3 -0.4 18
2019-08-24 20:00:00 33.7 5 Sur 16 Sudoeste 0 931 -0.9 14
2019-08-24 19:00:00 34.4 7 Sur 20 Sudeste 0 931.3 -1.1 14
2019-08-24 18:00:00 34.4 11 Sudeste 21 Este 0 931.7 -1.2 16
2019-08-24 17:00:00 33.8 8 Noroeste 29 Nordeste 0 931.9 -1.7 15
2019-08-24 16:00:00 35 8 Sudoeste 21 Oeste 0 932.4 -1.7 16
2019-08-24 15:00:00 33.1 14 Oeste 26 Oeste 0 932.9 -1.4 16
2019-08-24 14:00:00 32.4 9 Este 18 Sur 0 933.6 -0.8 18
2019-08-24 13:00:00 31.2 10 Este 19 Este 0 934.1 0 21
2019-08-24 12:00:00 30 5 Sudeste 15 Sur 0 934.3 0.5 26
2019-08-24 11:00:00 27.9 7 Sur 15 Sudoeste 0 934.4 0.9 32
2019-08-24 10:00:00 25.6 3 Sur 10 Este 0 934.1 0.7 32
2019-08-24 09:00:00 21.3 4 Nordeste 9 Este 0 933.8 0.5 42
2019-08-24 08:00:00 19 4 Sudeste 17 Sur 0 933.5 0.2 43
2019-08-24 07:00:00 19 10 Sur 19 Sudoeste 0 933.4 0.1 45
2019-08-24 06:00:00 19.6 10 Sur 20 Sur 0 933.3 0 48
2019-08-24 05:00:00 20.1 9 Sur 18 Sur 0 933.3 0.1 47
2019-08-24 04:00:00 20.7 10 Sur 21 Sur 0 933.3 0.3 41
2019-08-24 03:00:00 21.4 11 Sur 19 Sur 0 933.3 0.4 38
2019-08-24 02:00:00 22.5 9 Sur 14 Sur 0 933.2 0.6 34
2019-08-24 01:00:00 23.6 6 Sur 13 Sudeste 0 933 0.9 32
2019-08-24 00:00:00 25.2 3 Sudoeste 15 Oeste 0 932.9 1.2 30
2019-08-23 23:00:00 27.5 12 Oeste 18 Sudoeste 0 932.6 1.1 27
2019-08-23 22:00:00 29.1 6 Sudoeste 10 Sudoeste 0 932.1 0.4 22
2019-08-23 21:00:00 31 8 Este 19 Nordeste 0 931.7 -0.1 21
2019-08-23 20:00:00 32.5 3 Sudeste 13 Nordeste 0 931.5 -0.7 20
2019-08-23 19:00:00 33 6 Oeste 21 Norte 0 931.7 -0.8 19
2019-08-23 18:00:00 33.8 11 Norte 23 Norte 0 931.8 -1.6 19
2019-08-23 17:00:00 33.9 7 Este 19 Norte 0 932.2 -1.6 14
2019-08-23 16:00:00 35.1 8 Sudoeste 26 Oeste 0 932.5 -1.8 14
2019-08-23 15:00:00 33.2 7 Nordeste 24 Este 0 933.4 -1.2 17
2019-08-23 14:00:00 31.8 5 Sudoeste 22 Sudeste 0 933.8 -0.9 21
2019-08-23 13:00:00 31 6 Este 22 Sudeste 0 934.3 -0.1 24
2019-08-23 12:00:00 29.6 5 Este 19 Este 0 934.6 0.5 28
2019-08-23 11:00:00 28 8 Este 24 Este 0 934.7 0.9 32
2019-08-23 10:00:00 24.8 14 Este 25 Este 0 934.4 1 39
2019-08-23 09:00:00 22.4 10 Este 18 Este 0 934.1 0.6 53
2019-08-23 08:00:00 20.2 6 Este 14 Este 0 933.8 0.3 72
2019-08-23 07:00:00 18.9 6 Este 11 Este 0 933.4 0 76
2019-08-23 06:00:00 20 6 Sur 11 Sur 0 933.5 0 71
2019-08-23 05:00:00 20.3 7 Sur 13 Sur 0 933.5 0.2 70
2019-08-23 04:00:00 20.7 7 Sur 12 Sudeste 0 933.4 0.2 68
2019-08-23 03:00:00 21.2 8 Sur 15 Sur 0 933.5 0.4 66
2019-08-23 02:00:00 22.1 9 Sur 18 Sur 0 933.3 0.3 60
2019-08-23 01:00:00 23.5 10 Sur 20 Sudeste 0 933.2 0.7 50
2019-08-23 00:00:00 25.5 6 Sudeste 17 Este 0 933.1 1.1 25
2019-08-22 23:00:00 26.8 8 Este 24 Este 0 933 1.2 23
2019-08-22 22:00:00 28.2 3 Norte 8 Norte 0 932.5 0.6 24
2019-08-22 21:00:00 30.4 0 Calma 12 Este 0 932 -0.1 22
2019-08-22 20:00:00 32.3 8 Sudeste 21 Sudeste 0 931.8 -0.6 19
2019-08-22 19:00:00 31.8 4 Nordeste 21 Nordeste 0 931.9 -1 20
2019-08-22 18:00:00 33.9 13 Nordeste 25 Este 0 932.1 -1.4 19
2019-08-22 17:00:00 33.7 8 Sudoeste 25 Este 0 932.4 -1.6 18
2019-08-22 16:00:00 33.7 5 Sur 30 Este 0 932.9 -1.6 20
2019-08-22 15:00:00 31.6 12 Este 27 Sudeste 0 933.5 -1.2 21
2019-08-22 14:00:00 31.5 9 Este 29 Sudeste 0 934 -0.7 27
2019-08-22 13:00:00 30 10 Este 23 Este 0 934.5 -0.2 30
2019-08-22 12:00:00 28.2 10 Este 24 Este 0 934.7 0.2 38
2019-08-22 11:00:00 26.6 8 Este 19 Este 0 934.7 0.6 48
2019-08-22 10:00:00 24.1 4 Norte 9 Nordeste 0 934.7 1 60
2019-08-22 09:00:00 20.5 4 Este 9 Este 0 934.5 1 73
2019-08-22 08:00:00 18.1 8 Nordeste 11 Nordeste 0 934.1 0.2 80
2019-08-22 07:00:00 19.1 6 Sur 14 Sur 0 933.7 -0.2 77
2019-08-22 06:00:00 19.6 8 Sur 15 Sur 0 933.5 -0.5 73
2019-08-22 05:00:00 20.2 7 Sur 14 Sur 0 933.9 -0.2 69
2019-08-22 04:00:00 21.2 8 Sur 13 Sudeste 0 933.9 -0.4 63
2019-08-22 03:00:00 22.2 6 Sur 12 Sur 0 934 0.2 58
2019-08-22 02:00:00 23.5 7 Sudeste 16 Sur 0 934.1 0.9 52
2019-08-22 01:00:00 24.6 8 Sur 22 Sudeste 0 934.3 1.8 47
2019-08-22 00:00:00 25.9 9 Sudeste 26 Sudeste 0 933.8 1.8 43
2019-08-21 23:00:00 26 12 Este 27 Este 0 933.2 1.4 41
2019-08-21 22:00:00 27.1 5 Sudoeste 8 Oeste 0 932.5 0.8 31
2019-08-21 21:00:00 29.1 4 Oeste 13 Nordeste 0 932 0.3 28
2019-08-21 20:00:00 30.6 2 Norte 17 Noroeste 0 931.8 -0.2 26
2019-08-21 19:00:00 31 8 Noroeste 23 Oeste 0 931.7 -0.7 26
2019-08-21 18:00:00 31.1 14 Oeste 27 Sudoeste 0 931.7 -1.2 29
2019-08-21 17:00:00 30.7 6 Oeste 21 Noroeste 0 932 -1.1 29
2019-08-21 16:00:00 29.2 10 Oeste 19 Oeste 0 932.4 -1.3 33
2019-08-21 15:00:00 30.5 7 Sudoeste 19 Sudoeste 0 932.9 -1.2 31
2019-08-21 14:00:00 29 8 Sudoeste 20 Oeste 0 933.1 -0.9 36
2019-08-21 13:00:00 29.1 8 Sur 24 Sudeste 0 933.7 -0.2 36
2019-08-21 12:00:00 28.1 6 Sudoeste 22 Sur 0 934.1 0.6 40
2019-08-21 11:00:00 27 10 Sur 28 Sudoeste 0 934 0.7 47
2019-08-21 10:00:00 23.6 12 Sudoeste 23 Sudoeste 0 933.9 0.8 61
2019-08-21 09:00:00 20.9 11 Sudoeste 21 Sudoeste 0 933.5 0.7 71
2019-08-21 08:00:00 19.4 9 Sur 17 Sur 0 933.3 0.8 71
2019-08-21 07:00:00 19.5 7 Sur 17 Sur 0 933.1 0.5 63
2019-08-21 06:00:00 19.8 10 Sur 24 Sudoeste 0 932.8 0.2 54
2019-08-21 05:00:00 19.6 12 Sur 22 Sur 0 932.5 0.3 30
2019-08-21 04:00:00 20.1 11 Sur 19 Sur 0 932.6 0.5 27
2019-08-21 03:00:00 21.8 9 Sur 15 Sur 0 932.6 0.6 21
2019-08-21 02:00:00 23.1 5 Sudoeste 9 Oeste 0 932.2 0 18
2019-08-21 01:00:00 23.4 7 Oeste 10 Oeste 0 932.1 0.6 18
2019-08-21 00:00:00 24.3 7 Oeste 13 Sudoeste 0 932 0.9 17